createdAt,value
2017-10-26T00:00:17.026Z,10.53
2017-10-26T00:02:44.564Z,10.57
2017-10-26T00:05:12.839Z,8.87
2017-10-26T00:07:41.127Z,9.13
2017-10-26T00:10:09.398Z,8.37
2017-10-26T00:12:37.682Z,8.47
2017-10-26T00:15:05.952Z,8.53
2017-10-26T00:17:34.247Z,10.00
2017-10-26T00:20:01.751Z,8.93
2017-10-26T00:22:29.274Z,8.73
2017-10-26T00:24:56.775Z,9.17
2017-10-26T00:27:24.304Z,9.23
2017-10-26T00:29:51.807Z,9.50
2017-10-26T00:32:20.107Z,10.93
2017-10-26T00:34:47.611Z,10.90
2017-10-26T00:37:15.150Z,10.73
2017-10-26T00:39:42.657Z,10.33
2017-10-26T00:42:10.187Z,10.20
2017-10-26T00:44:37.694Z,9.73
2017-10-26T00:47:05.211Z,9.50
2017-10-26T00:49:32.735Z,10.07
2017-10-26T00:52:00.237Z,9.43
2017-10-26T00:54:27.763Z,10.07
2017-10-26T00:56:55.272Z,8.90
2017-10-26T00:59:23.563Z,9.60
2017-10-26T01:01:51.075Z,8.70
2017-10-26T01:04:18.599Z,9.70
2017-10-26T01:06:46.180Z,10.30
2017-10-26T01:09:13.729Z,10.83
2017-10-26T01:11:41.259Z,10.10
2017-10-26T01:14:08.787Z,11.50
2017-10-26T01:16:36.294Z,11.90
2017-10-26T01:19:03.823Z,11.57
2017-10-26T01:21:32.123Z,11.70
2017-10-26T01:23:59.647Z,10.80
2017-10-26T01:26:27.922Z,10.67
2017-10-26T01:28:56.210Z,10.23
2017-10-26T01:31:24.477Z,9.87
2017-10-26T01:33:52.766Z,12.00
2017-10-26T01:36:21.039Z,10.57
2017-10-26T01:38:49.330Z,11.43
2017-10-26T01:41:16.842Z,10.63
2017-10-26T01:43:44.371Z,9.90
2017-10-26T01:46:11.866Z,9.13
2017-10-26T01:48:39.390Z,9.47
2017-10-26T01:51:06.897Z,9.23
2017-10-26T01:53:35.208Z,9.63
2017-10-26T01:56:02.722Z,8.67
2017-10-26T01:58:30.997Z,7.80
2017-10-26T02:00:59.284Z,8.10
2017-10-26T02:03:27.554Z,10.33
2017-10-26T02:05:55.847Z,10.83
2017-10-26T02:08:23.376Z,10.17
2017-10-26T02:10:50.900Z,10.10
2017-10-26T02:13:18.403Z,9.93
2017-10-26T02:15:46.819Z,11.00
2017-10-26T02:18:14.326Z,10.30
2017-10-26T02:20:41.854Z,10.20
2017-10-26T02:23:09.363Z,10.63
2017-10-26T02:25:37.656Z,11.87
2017-10-26T02:28:05.181Z,12.90
2017-10-26T02:30:44.476Z,12.87
2017-10-26T02:33:11.987Z,13.43
2017-10-26T02:35:40.270Z,13.80
2017-10-26T02:38:08.543Z,12.30
2017-10-26T02:40:36.846Z,11.47
2017-10-26T02:43:04.362Z,12.17
2017-10-26T02:45:31.893Z,11.90
2017-10-26T02:47:59.413Z,13.33
2017-10-26T02:50:26.938Z,13.43
2017-10-26T02:52:55.225Z,14.70
2017-10-26T02:55:23.523Z,15.63
2017-10-26T02:57:51.039Z,17.13
2017-10-26T03:00:18.573Z,16.57
2017-10-26T03:02:46.087Z,16.27
2017-10-26T03:05:13.615Z,16.80
2017-10-26T03:07:41.133Z,17.80
2017-10-26T03:10:08.651Z,16.80
2017-10-26T03:12:36.944Z,17.87
2017-10-26T03:15:04.452Z,17.77
2017-10-26T03:17:31.974Z,17.90
2017-10-26T03:19:59.493Z,18.67
2017-10-26T03:22:27.783Z,19.17
2017-10-26T03:24:56.058Z,20.40
2017-10-26T03:27:23.591Z,18.63
2017-10-26T03:29:51.100Z,18.07
2017-10-26T03:32:18.628Z,19.80
2017-10-26T03:34:46.911Z,19.40
2017-10-26T03:37:14.438Z,20.00
2017-10-26T03:39:41.944Z,18.37
2017-10-26T03:42:09.471Z,19.40
2017-10-26T03:44:37.780Z,23.43
2017-10-26T03:47:05.282Z,17.83
2017-10-26T03:49:33.583Z,15.97
2017-10-26T03:52:01.854Z,15.00
2017-10-26T03:54:30.146Z,14.90
2017-10-26T03:56:58.425Z,15.30
2017-10-26T03:59:25.954Z,16.70
2017-10-26T04:01:53.474Z,14.30
2017-10-26T04:04:20.999Z,17.03
2017-10-26T04:06:49.276Z,15.17
2017-10-26T04:09:16.805Z,15.67
2017-10-26T04:11:44.319Z,18.80
2017-10-26T04:14:11.852Z,19.27
2017-10-26T04:16:39.371Z,18.90
2017-10-26T04:19:06.904Z,18.80
2017-10-26T04:21:34.413Z,16.63
2017-10-26T04:24:02.703Z,16.30
2017-10-26T04:26:30.223Z,16.37
2017-10-26T04:28:57.742Z,18.80
2017-10-26T04:31:25.250Z,16.30
2017-10-26T04:33:52.779Z,17.60
2017-10-26T04:36:20.284Z,18.93
2017-10-26T04:38:48.586Z,16.43
2017-10-26T04:41:16.124Z,14.63
2017-10-26T04:43:43.644Z,14.47
2017-10-26T04:46:11.176Z,16.40
2017-10-26T04:48:38.691Z,15.40
2017-10-26T04:51:06.993Z,20.00
2017-10-26T04:53:34.502Z,15.93
2017-10-26T04:56:02.807Z,16.20
2017-10-26T04:58:31.083Z,15.13
2017-10-26T05:00:59.372Z,18.20
2017-10-26T05:03:26.883Z,20.50
2017-10-26T05:05:54.412Z,18.47
2017-10-26T05:08:21.929Z,18.43
2017-10-26T05:10:50.214Z,15.40
2017-10-26T05:13:17.727Z,16.83
2017-10-26T05:15:45.251Z,16.70
2017-10-26T05:18:14.267Z,15.17
2017-10-26T05:20:41.815Z,17.80
2017-10-26T05:23:09.324Z,15.63
2017-10-26T05:25:37.618Z,15.37
2017-10-26T05:28:05.130Z,17.20
2017-10-26T05:30:32.659Z,16.90
2017-10-26T05:33:00.209Z,17.87
2017-10-26T05:35:27.742Z,16.20
2017-10-26T05:37:55.250Z,15.53
2017-10-26T05:40:23.400Z,15.50
2017-10-26T05:42:51.499Z,16.97
2017-10-26T05:45:19.023Z,17.70
2017-10-26T05:47:46.530Z,17.90
2017-10-26T05:50:14.955Z,22.53
2017-10-26T05:52:42.505Z,18.73
2017-10-26T05:55:10.021Z,16.37
2017-10-26T05:57:37.553Z,22.17
2017-10-26T06:00:05.063Z,19.90
2017-10-26T06:02:33.354Z,16.77
2017-10-26T06:05:00.864Z,13.93
2017-10-26T06:07:28.391Z,14.90
2017-10-26T06:09:55.899Z,16.80
2017-10-26T06:12:23.423Z,18.27
2017-10-26T06:14:50.932Z,17.47
2017-10-26T06:17:19.227Z,16.10
2017-10-26T06:19:46.743Z,14.20
2017-10-26T06:22:14.271Z,16.40
2017-10-26T06:24:41.783Z,14.20
2017-10-26T06:27:10.059Z,14.17
2017-10-26T06:29:38.357Z,14.63
2017-10-26T06:32:05.867Z,15.10
2017-10-26T06:34:33.396Z,15.30
2017-10-26T06:37:00.912Z,14.40
2017-10-26T06:39:29.208Z,15.27
2017-10-26T06:41:56.720Z,14.07
2017-10-26T06:44:24.336Z,13.53
2017-10-26T06:46:51.848Z,15.23
2017-10-26T06:49:20.146Z,14.23
2017-10-26T06:51:47.658Z,14.80
2017-10-26T06:54:15.180Z,14.03
2017-10-26T06:56:42.705Z,14.07
2017-10-26T06:59:11.091Z,13.37
2017-10-26T07:01:39.363Z,14.20
2017-10-26T07:04:07.666Z,11.90
2017-10-26T07:06:35.175Z,12.47
2017-10-26T07:09:02.702Z,11.73
2017-10-26T07:11:30.220Z,12.60
2017-10-26T07:13:58.515Z,11.47
2017-10-26T07:16:26.031Z,10.90
2017-10-26T07:18:53.557Z,9.60
2017-10-26T07:21:21.067Z,11.20
2017-10-26T07:23:49.379Z,11.50
2017-10-26T07:26:16.887Z,11.80
2017-10-26T07:28:44.414Z,11.17
2017-10-26T07:31:11.927Z,12.87
2017-10-26T07:33:40.220Z,12.70
2017-10-26T07:36:07.727Z,13.50
2017-10-26T07:38:35.252Z,13.40
2017-10-26T07:41:02.758Z,11.63
2017-10-26T07:43:31.052Z,11.93
2017-10-26T07:45:58.564Z,10.40
2017-10-26T07:48:26.092Z,12.50
2017-10-26T07:50:53.608Z,13.37
2017-10-26T07:53:21.902Z,11.53
2017-10-26T07:55:50.193Z,10.20
2017-10-26T07:58:17.698Z,11.47
2017-10-26T08:00:45.244Z,9.70
2017-10-26T08:03:12.744Z,9.80
2017-10-26T08:05:41.036Z,11.40
2017-10-26T08:08:08.553Z,10.30
2017-10-26T08:10:36.078Z,11.33
2017-10-26T08:13:03.589Z,10.10
2017-10-26T08:15:31.878Z,11.47
2017-10-26T08:17:59.388Z,11.00
2017-10-26T08:20:26.918Z,11.60
2017-10-26T08:22:54.423Z,10.57
2017-10-26T08:25:21.944Z,9.90
2017-10-26T08:27:49.451Z,9.83
2017-10-26T08:30:17.744Z,9.00
2017-10-26T08:32:46.020Z,9.43
2017-10-26T08:35:14.312Z,9.27
2017-10-26T08:37:41.819Z,8.93
2017-10-26T08:40:09.323Z,9.33
2017-10-26T08:42:36.847Z,11.33
2017-10-26T08:45:04.359Z,12.23
2017-10-26T08:47:31.891Z,12.53
2017-10-26T08:49:59.403Z,11.50
2017-10-26T08:52:26.957Z,11.80
2017-10-26T08:54:54.479Z,9.70
2017-10-26T08:57:22.011Z,11.77
2017-10-26T08:59:50.283Z,10.17
2017-10-26T09:02:18.572Z,10.17
2017-10-26T09:04:46.087Z,10.70
2017-10-26T09:07:13.603Z,8.70
2017-10-26T09:09:41.107Z,9.37
2017-10-26T09:12:08.628Z,9.00
2017-10-26T09:14:36.143Z,10.40
2017-10-26T09:17:04.432Z,10.27
2017-10-26T09:19:31.948Z,9.10
2017-10-26T09:21:59.474Z,11.27
2017-10-26T09:24:26.989Z,11.63
2017-10-26T09:26:55.309Z,10.87
2017-10-26T09:29:22.817Z,9.00
2017-10-26T09:31:50.340Z,9.60
2017-10-26T09:34:17.851Z,9.73
2017-10-26T09:36:46.140Z,9.00
2017-10-26T09:39:13.646Z,9.70
2017-10-26T09:41:41.215Z,9.70
2017-10-26T09:44:08.718Z,8.93
2017-10-26T09:46:36.238Z,10.10
2017-10-26T09:49:03.756Z,10.60
2017-10-26T09:51:31.299Z,11.67
2017-10-26T09:53:58.815Z,12.60
2017-10-26T09:56:26.360Z,12.23
2017-10-26T09:58:53.874Z,12.77
2017-10-26T10:01:21.387Z,10.60
2017-10-26T10:03:48.922Z,11.50
2017-10-26T10:06:17.190Z,11.47
2017-10-26T10:08:44.720Z,10.60
2017-10-26T10:11:12.231Z,9.00
2017-10-26T10:13:39.752Z,7.47
2017-10-26T10:16:07.251Z,7.90
2017-10-26T10:18:34.777Z,8.63
2017-10-26T10:21:02.280Z,7.10
2017-10-26T10:23:29.794Z,7.50
2017-10-26T10:25:57.303Z,6.93
2017-10-26T10:28:25.582Z,6.80
2017-10-26T10:30:53.851Z,8.60
2017-10-26T10:33:22.139Z,7.43
2017-10-26T10:35:50.410Z,7.63
2017-10-26T10:38:18.691Z,7.03
2017-10-26T10:40:46.959Z,6.80
2017-10-26T10:43:15.243Z,5.77
2017-10-26T10:45:43.516Z,6.07
2017-10-26T10:48:11.807Z,5.77
2017-10-26T10:50:39.307Z,6.50
2017-10-26T10:53:06.935Z,6.40
2017-10-26T10:55:34.434Z,5.93
2017-10-26T10:58:01.947Z,6.60
2017-10-26T11:00:33.295Z,6.40
2017-10-26T11:03:00.810Z,6.50
2017-10-26T11:05:28.315Z,6.90
2017-10-26T11:07:55.826Z,6.50
2017-10-26T11:10:23.328Z,5.87
2017-10-26T11:12:50.876Z,6.60
2017-10-26T11:15:18.380Z,5.20
2017-10-26T11:17:45.881Z,4.90
2017-10-26T11:20:14.159Z,5.50
2017-10-26T11:22:42.432Z,5.57
2017-10-26T11:25:10.719Z,5.63
2017-10-26T11:27:38.219Z,7.80
2017-10-26T11:30:05.739Z,6.47
2017-10-26T11:32:33.240Z,6.13
2017-10-26T11:35:00.856Z,8.27
2017-10-26T11:37:28.423Z,7.57
2017-10-26T11:39:55.938Z,7.33
2017-10-26T11:42:23.449Z,6.53
2017-10-26T11:44:51.104Z,7.30
2017-10-26T11:47:18.608Z,8.27
2017-10-26T11:49:46.131Z,7.10
2017-10-26T11:52:13.627Z,7.73
2017-10-26T11:54:41.148Z,7.40
2017-10-26T11:57:09.108Z,6.57
2017-10-26T11:59:36.631Z,7.00
2017-10-26T12:02:04.902Z,6.40
2017-10-26T12:04:33.182Z,6.97
2017-10-26T12:07:01.458Z,5.93
2017-10-26T12:09:29.735Z,6.23
2017-10-26T12:11:58.024Z,5.70
2017-10-26T12:14:25.551Z,5.83
2017-10-26T12:16:53.076Z,6.83
2017-10-26T12:19:20.587Z,7.10
2017-10-26T12:21:48.871Z,6.23
2017-10-26T12:24:16.407Z,7.27
2017-10-26T12:26:43.931Z,7.27
2017-10-26T12:29:11.437Z,7.27
2017-10-26T12:31:39.728Z,7.30
2017-10-26T12:34:07.932Z,7.40
2017-10-26T12:36:35.462Z,7.10
2017-10-26T12:39:02.978Z,7.30
2017-10-26T12:41:30.500Z,7.37
2017-10-26T12:43:58.013Z,7.20
2017-10-26T12:46:26.301Z,7.03
2017-10-26T12:48:54.568Z,7.57
2017-10-26T12:51:22.859Z,5.90
2017-10-26T12:53:50.375Z,7.53
2017-10-26T12:56:17.896Z,7.97
2017-10-26T12:58:45.395Z,6.80
2017-10-26T13:01:12.916Z,7.40
2017-10-26T13:03:40.419Z,6.73
2017-10-26T13:06:07.935Z,8.00
2017-10-26T13:08:35.452Z,8.10
2017-10-26T13:11:03.735Z,8.50
2017-10-26T13:13:32.002Z,9.50
2017-10-26T13:16:00.309Z,8.80
2017-10-26T13:18:27.819Z,8.70
2017-10-26T13:20:55.331Z,9.40
2017-10-26T13:23:22.847Z,8.20
2017-10-26T13:25:51.119Z,8.00
2017-10-26T13:28:19.408Z,7.50
2017-10-26T13:30:47.679Z,6.60
2017-10-26T13:33:15.968Z,7.80
2017-10-26T13:35:43.475Z,7.90
2017-10-26T13:38:10.996Z,6.97
2017-10-26T13:40:38.503Z,7.40
2017-10-26T13:43:06.047Z,8.70
2017-10-26T13:45:33.551Z,9.00
2017-10-26T13:48:01.847Z,10.40
2017-10-26T13:50:29.352Z,8.83
2017-10-26T13:52:56.875Z,8.97
2017-10-26T13:55:24.396Z,10.13
2017-10-26T13:57:52.691Z,10.10
2017-10-26T14:00:20.222Z,9.97
2017-10-26T14:05:40.039Z,9.40
2017-10-26T14:08:07.564Z,9.90
2017-10-26T14:10:35.090Z,9.80
2017-10-26T14:13:03.387Z,9.07
2017-10-26T14:15:30.899Z,9.70
2017-10-26T14:17:58.419Z,8.13
2017-10-26T14:20:25.928Z,8.70
2017-10-26T14:22:53.465Z,9.00
2017-10-26T14:25:21.799Z,10.43
2017-10-26T14:27:49.303Z,9.10
2017-10-26T14:30:16.828Z,9.93
2017-10-26T14:32:44.338Z,10.20
2017-10-26T14:35:11.869Z,9.10
2017-10-26T14:37:40.168Z,9.93
2017-10-26T14:40:07.686Z,9.47
2017-10-26T14:42:35.196Z,9.30
2017-10-26T14:45:02.728Z,10.20
2017-10-26T14:47:30.240Z,9.20
2017-10-26T14:49:57.767Z,9.50
2017-10-26T14:52:25.268Z,8.77
2017-10-26T14:54:52.787Z,9.40
2017-10-26T14:57:20.290Z,9.20
2017-10-26T14:59:47.807Z,9.80
2017-10-26T15:02:15.319Z,12.00
2017-10-26T15:04:43.613Z,10.60
2017-10-26T15:07:11.135Z,8.53
2017-10-26T15:09:38.653Z,7.70
2017-10-26T15:12:06.162Z,7.23
2017-10-26T15:14:34.455Z,6.00
2017-10-26T15:17:01.967Z,6.57
2017-10-26T15:19:29.471Z,6.17
2017-10-26T15:21:56.995Z,6.90
2017-10-26T15:24:24.500Z,6.03
2017-10-26T15:26:52.024Z,5.63
2017-10-26T15:29:20.298Z,6.67
2017-10-26T15:31:48.588Z,7.73
2017-10-26T15:34:16.854Z,7.00
2017-10-26T15:36:45.138Z,7.70
2017-10-26T15:39:13.406Z,6.10
2017-10-26T15:41:41.690Z,6.33
2017-10-26T15:44:09.965Z,5.70
2017-10-26T15:46:38.251Z,6.23
2017-10-26T15:49:05.758Z,5.87
2017-10-26T15:51:33.274Z,6.03
2017-10-26T15:54:00.778Z,6.10
2017-10-26T15:56:28.295Z,6.03
2017-10-26T15:58:55.805Z,6.13
2017-10-26T16:01:23.323Z,5.80
2017-10-26T16:03:50.823Z,7.80
2017-10-26T16:06:18.338Z,6.90
2017-10-26T16:08:45.894Z,8.03
2017-10-26T16:11:13.416Z,7.93
2017-10-26T16:13:41.695Z,7.20
2017-10-26T16:16:09.982Z,8.20
2017-10-26T16:18:37.485Z,7.30
2017-10-26T16:21:05.006Z,7.47
2017-10-26T16:23:32.507Z,7.90
2017-10-26T16:26:00.032Z,7.43
2017-10-26T16:28:27.543Z,7.80
2017-10-26T16:30:55.072Z,7.10
2017-10-26T16:33:22.609Z,6.57
2017-10-26T16:35:50.128Z,7.27
2017-10-26T16:38:18.391Z,7.80
2017-10-26T16:40:45.899Z,10.27
2017-10-26T16:43:13.420Z,7.70
2017-10-26T16:45:41.723Z,8.90
2017-10-26T16:48:09.246Z,8.10
2017-10-26T16:50:36.748Z,8.40
2017-10-26T16:53:04.276Z,9.10
2017-10-26T16:55:32.559Z,8.47
2017-10-26T16:58:00.847Z,7.67
2017-10-26T17:00:28.360Z,6.73
2017-10-26T17:02:55.882Z,7.00
2017-10-26T17:05:23.389Z,7.60
2017-10-26T17:07:51.692Z,6.57
2017-10-26T17:10:19.964Z,5.73
2017-10-26T17:12:47.488Z,5.80
2017-10-26T17:15:14.999Z,5.13
2017-10-26T17:17:42.538Z,5.93
2017-10-26T17:20:10.803Z,6.07
2017-10-26T17:22:39.103Z,5.67
2017-10-26T17:25:06.619Z,5.70
2017-10-26T17:27:34.139Z,6.47
2017-10-26T17:30:01.660Z,6.77
2017-10-26T17:32:29.926Z,6.47
2017-10-26T17:34:58.224Z,5.87
2017-10-26T17:37:25.728Z,6.43
2017-10-26T17:39:53.246Z,5.30
2017-10-26T17:42:20.752Z,5.30
2017-10-26T17:44:48.279Z,6.83
2017-10-26T17:47:15.951Z,6.03
2017-10-26T17:49:43.479Z,5.60
2017-10-26T17:52:10.989Z,5.77
2017-10-26T17:54:38.519Z,6.87
2017-10-26T17:57:06.019Z,5.70
2017-10-26T17:59:33.540Z,5.87
2017-10-26T18:02:01.035Z,6.57
2017-10-26T18:04:28.560Z,6.20
2017-10-26T18:06:56.062Z,6.50
2017-10-26T18:09:24.344Z,6.33
2017-10-26T18:11:52.619Z,6.03
2017-10-26T18:14:20.903Z,6.00
2017-10-26T18:16:49.178Z,6.83
2017-10-26T18:19:16.708Z,8.13
2017-10-26T18:21:44.207Z,6.33
2017-10-26T18:24:11.731Z,6.40
2017-10-26T18:26:40.003Z,7.20
2017-10-26T18:29:07.523Z,7.97
2017-10-26T18:31:35.032Z,6.93
2017-10-26T18:34:03.323Z,7.20
2017-10-26T18:36:31.005Z,7.40
2017-10-26T18:38:58.538Z,6.40
2017-10-26T18:41:26.839Z,8.37
2017-10-26T18:43:54.365Z,9.10
2017-10-26T18:46:22.644Z,9.30
2017-10-26T18:48:50.918Z,10.17
2017-10-26T18:51:19.216Z,9.83
2017-10-26T18:53:46.727Z,10.40
2017-10-26T18:56:14.253Z,8.90
2017-10-26T18:58:41.764Z,10.23
2017-10-26T19:01:10.055Z,13.47
2017-10-26T19:03:37.574Z,11.20
2017-10-26T19:06:05.094Z,9.70
2017-10-26T19:08:32.619Z,12.07
2017-10-26T19:11:00.147Z,10.00
2017-10-26T19:13:27.659Z,9.20
2017-10-26T19:15:55.228Z,11.80
2017-10-26T19:18:22.747Z,10.80
2017-10-26T19:20:51.040Z,7.40
2017-10-26T19:23:18.556Z,8.57
2017-10-26T19:25:46.084Z,9.20
2017-10-26T19:28:13.604Z,7.47
2017-10-26T19:30:41.890Z,8.00
2017-10-26T19:33:09.392Z,7.70
2017-10-26T19:35:36.908Z,8.20
2017-10-26T19:38:04.416Z,8.10
2017-10-26T19:40:31.936Z,8.30
2017-10-26T19:42:59.514Z,9.97
2017-10-26T19:45:27.036Z,9.77
2017-10-26T19:47:54.548Z,8.90
2017-10-26T19:50:22.176Z,9.70
2017-10-26T19:52:49.688Z,10.50
2017-10-26T19:55:17.232Z,9.70
2017-10-26T19:57:44.758Z,8.93
2017-10-26T20:00:12.572Z,12.70
2017-10-26T20:02:40.093Z,15.13
2017-10-26T20:05:07.635Z,16.20
2017-10-26T20:07:35.176Z,11.93
2017-10-26T20:10:02.756Z,14.60
2017-10-26T20:12:30.271Z,12.70
2017-10-26T20:14:58.574Z,10.90
2017-10-26T20:17:26.118Z,12.20
2017-10-26T20:19:54.468Z,10.47
2017-10-26T20:22:22.009Z,20.17
2017-10-26T20:24:49.538Z,13.07
2017-10-26T20:27:17.099Z,11.70
2017-10-26T20:29:44.970Z,15.73
2017-10-26T20:32:12.632Z,10.40
2017-10-26T20:34:40.454Z,10.47
2017-10-26T20:37:08.757Z,11.40
2017-10-26T20:39:36.282Z,12.73
2017-10-26T20:42:04.666Z,12.23
2017-10-26T20:44:33.155Z,10.37
2017-10-26T20:47:02.296Z,10.93
2017-10-26T20:49:35.689Z,9.83
2017-10-26T20:52:09.049Z,9.23
2017-10-26T20:54:43.127Z,10.17
2017-10-26T20:57:16.734Z,9.63
2017-10-26T20:59:49.961Z,10.40
2017-10-26T21:02:23.274Z,12.47
2017-10-26T21:04:56.412Z,12.13
2017-10-26T21:07:29.682Z,9.30
2017-10-26T21:09:57.244Z,9.70
2017-10-26T21:12:32.032Z,9.80
2017-10-26T21:14:59.566Z,17.30
2017-10-26T21:17:27.167Z,18.50
2017-10-26T21:19:54.968Z,25.97
2017-10-26T21:22:22.512Z,17.10
2017-10-26T21:24:50.333Z,12.80
2017-10-26T21:27:18.024Z,11.10
2017-10-26T21:29:45.553Z,36.67
2017-10-26T21:32:13.108Z,18.90
2017-10-26T21:34:40.640Z,17.37
2017-10-26T21:37:08.187Z,13.90
2017-10-26T21:39:35.721Z,15.87
2017-10-26T21:42:03.362Z,17.00
2017-10-26T21:44:31.585Z,13.30
2017-10-26T21:46:59.136Z,12.27
2017-10-26T21:49:26.653Z,12.07
2017-10-26T21:51:54.548Z,12.97
2017-10-26T21:54:22.078Z,13.17
2017-10-26T21:56:49.605Z,12.57
2017-10-26T21:59:17.901Z,12.10
2017-10-26T22:01:45.427Z,12.00
2017-10-26T22:04:12.956Z,12.53
2017-10-26T22:06:40.464Z,11.17
2017-10-26T22:09:07.990Z,12.23
2017-10-26T22:11:35.501Z,12.10
2017-10-26T22:14:03.024Z,12.80
2017-10-26T22:16:31.314Z,11.60
2017-10-26T22:18:59.606Z,11.20
2017-10-26T22:21:27.119Z,11.30
2017-10-26T22:23:54.639Z,11.40
2017-10-26T22:26:22.147Z,10.03
2017-10-26T22:28:50.437Z,9.90
2017-10-26T22:31:18.727Z,10.93
2017-10-26T22:33:46.391Z,9.53
2017-10-26T22:36:13.894Z,10.63
2017-10-26T22:38:41.424Z,9.90
2017-10-26T22:41:08.962Z,9.90
2017-10-26T22:43:36.481Z,9.97
2017-10-26T22:46:04.004Z,10.30
2017-10-26T22:48:31.526Z,11.53
2017-10-26T22:50:59.792Z,9.67
2017-10-26T22:53:28.498Z,11.00
2017-10-26T22:55:56.011Z,11.93
2017-10-26T22:58:23.519Z,13.13
2017-10-26T23:00:51.043Z,12.50
2017-10-26T23:03:19.319Z,11.20
2017-10-26T23:05:47.616Z,11.77
2017-10-26T23:08:15.189Z,12.90
2017-10-26T23:10:42.714Z,10.43
2017-10-26T23:13:10.991Z,12.93
2017-10-26T23:15:39.279Z,11.20
2017-10-26T23:18:07.546Z,10.57
2017-10-26T23:20:35.835Z,11.00
2017-10-26T23:23:03.406Z,11.63
2017-10-26T23:25:30.966Z,10.90
2017-10-26T23:27:58.471Z,11.50
2017-10-26T23:30:26.012Z,12.63
2017-10-26T23:32:53.535Z,12.87
2017-10-26T23:35:21.098Z,12.90
2017-10-26T23:37:48.654Z,12.03
2017-10-26T23:40:16.179Z,12.03
2017-10-26T23:42:43.691Z,13.83
2017-10-26T23:45:11.217Z,12.87
2017-10-26T23:47:39.492Z,17.00
2017-10-26T23:50:07.789Z,17.83
2017-10-26T23:52:35.375Z,18.90
2017-10-26T23:55:03.742Z,20.47
2017-10-26T23:57:31.255Z,23.97
2017-10-26T23:59:59.527Z,26.67
